Weather Data

Pearl Creek Farm: 8878 N Farm Road 75, Walnut Grove MO 65770

<== Previous Day (Sunday 14 Sep 2014) | Next Day (Tuesday 16 Sep 2014) ==>

Summary Precipitation Data For Monday 15 September 2014

ElementValueUnits
Precipitation0.1"
NotesThis observation includes multiple day totals starting on 13 September 2014.
SourcePearl Creek Farm

Summary Temperature Data For Monday 15 September 2014

ElementValueUnits
High Temperature86 oF
Low Temperature64 oF
Average Temperature72 oF
High Humidity88 %
Low Humidity60 %
Average Humidity78 %
SourcePearl Creek Farm

Detail Temperature Data For Monday 15 September 2014

Date / TimeTemp (F)RH (%)Dew Pt (F)Report Date / TimeSource
2014-09-15 00:00:00 64 78 56.8 2014-11-02 13:41:02 Pearl Creek Farm
2014-09-15 00:30:00 64 78 57.0 2014-11-02 13:41:02 Pearl Creek Farm
2014-09-15 01:00:00 64 79 57.4 2014-11-02 13:41:02 Pearl Creek Farm
2014-09-15 01:30:00 64 80 57.5 2014-11-02 13:41:02 Pearl Creek Farm
2014-09-15 02:00:00 64 80 57.5 2014-11-02 13:41:02 Pearl Creek Farm
2014-09-15 02:30:00 64 80 57.7 2014-11-02 13:41:02 Pearl Creek Farm
2014-09-15 03:00:00 65 80 58.7 2014-11-02 13:41:02 Pearl Creek Farm
2014-09-15 03:30:00 65 81 59.0 2014-11-02 13:41:02 Pearl Creek Farm
2014-09-15 04:00:00 65 81 59.0 2014-11-02 13:41:02 Pearl Creek Farm
2014-09-15 04:30:00 65 83 59.7 2014-11-02 13:41:02 Pearl Creek Farm
2014-09-15 05:00:00 65 85 60.2 2014-11-02 13:41:02 Pearl Creek Farm
2014-09-15 05:30:00 65 85 60.2 2014-11-02 13:41:02 Pearl Creek Farm
2014-09-15 06:00:00 65 85 60.4 2014-11-02 13:41:02 Pearl Creek Farm
2014-09-15 06:30:00 65 86 60.7 2014-11-02 13:41:02 Pearl Creek Farm
2014-09-15 07:00:00 65 87 60.9 2014-11-02 13:41:02 Pearl Creek Farm
2014-09-15 07:30:00 65 88 61.2 2014-11-02 13:41:02 Pearl Creek Farm
2014-09-15 08:00:00 66 88 62.2 2014-11-02 13:41:02 Pearl Creek Farm
2014-09-15 08:30:00 66 88 62.2 2014-11-02 13:41:02 Pearl Creek Farm
2014-09-15 09:00:00 67 88 63.2 2014-11-02 13:41:02 Pearl Creek Farm
2014-09-15 09:30:00 68 87 64.0 2014-11-02 13:41:02 Pearl Creek Farm
2014-09-15 10:00:00 69 87 64.8 2014-11-02 13:41:02 Pearl Creek Farm
2014-09-15 10:30:00 70 86 65.5 2014-11-02 13:41:02 Pearl Creek Farm
2014-09-15 11:00:00 73 83 67.4 2014-11-02 13:41:02 Pearl Creek Farm
2014-09-15 11:30:00 76 78 68.5 2014-11-02 13:41:02 Pearl Creek Farm
2014-09-15 12:00:00 77 76 68.7 2014-11-02 13:41:02 Pearl Creek Farm
2014-09-15 12:30:00 80 73 70.6 2014-11-02 13:41:02 Pearl Creek Farm
2014-09-15 13:00:00 81 69 69.6 2014-11-02 13:41:02 Pearl Creek Farm
2014-09-15 13:30:00 83 67 70.9 2014-11-02 13:41:02 Pearl Creek Farm
2014-09-15 14:00:00 84 64 70.5 2014-11-02 13:41:02 Pearl Creek Farm
2014-09-15 14:30:00 85 62 70.5 2014-11-02 13:41:02 Pearl Creek Farm
2014-09-15 15:00:00 84 63 70.0 2014-11-02 13:41:02 Pearl Creek Farm
2014-09-15 15:30:00 84 64 70.5 2014-11-02 13:41:02 Pearl Creek Farm
2014-09-15 16:00:00 86 60 70.5 2014-11-02 13:41:02 Pearl Creek Farm
2014-09-15 16:30:00 85 61 69.8 2014-11-02 13:41:02 Pearl Creek Farm
2014-09-15 17:00:00 85 61 70.0 2014-11-02 13:41:02 Pearl Creek Farm
2014-09-15 17:30:00 84 63 69.8 2014-11-02 13:41:02 Pearl Creek Farm
2014-09-15 18:00:00 82 67 69.7 2014-11-02 13:41:02 Pearl Creek Farm
2014-09-15 18:30:00 78 73 68.6 2014-11-02 13:41:02 Pearl Creek Farm
2014-09-15 19:00:00 77 76 68.7 2014-11-02 13:41:02 Pearl Creek Farm
2014-09-15 19:30:00 75 78 67.5 2014-11-02 13:41:02 Pearl Creek Farm
2014-09-15 20:00:00 74 79 66.9 2014-11-02 13:41:02 Pearl Creek Farm
2014-09-15 20:30:00 73 79 66.1 2014-11-02 13:41:02 Pearl Creek Farm
2014-09-15 21:00:00 73 81 66.6 2014-11-02 13:41:02 Pearl Creek Farm
2014-09-15 21:30:00 71 82 65.1 2014-11-02 13:41:02 Pearl Creek Farm
2014-09-15 22:00:00 70 82 64.1 2014-11-02 13:41:02 Pearl Creek Farm
2014-09-15 22:30:00 69 82 63.3 2014-11-02 13:41:02 Pearl Creek Farm
2014-09-15 23:00:00 69 83 63.4 2014-11-02 13:41:02 Pearl Creek Farm
2014-09-15 23:30:00 68 83 62.5 2014-11-02 13:41:02 Pearl Creek Farm

A total of 48 rows are displayed.